Skip Navigation Links
NOAA logo - Click to go to the NOAA homepage
NOAA's National Weather Service
Alaska Aviation Weather Unit
  NWS logo - Click to go to the NWS homepage
Left Navbar Graphic     09 AKDT = 17 GMT

   
NOAA is celebrating 200 years of science, service, and stewardship. Visit the NOAA 200th celebration Web site to learn more.
USA.gov is the U.S. Government's official Web portal to all Federal, state and local government Web resources and services.
Facebook
NWS on Facebook

Important Change Regarding the AAWU Web Presence

 

Over the last several months, the AAWU has been working to navigate its webpages to a nationally supported server. Security, as well as other needs, have necessitated the change.  In the process, we have made an effort to enhance the functionality of our website, as well as some of our products. As of June 20, 2017, aawu.arh.noaa.gov will be discontinued. The new AAWU web address is weather.gov/aawu. It is now live and will run in-parallel with the old site until it is discontinued. Please send any feedback or questions regarding the new webpages to nws.ar.aawu.webauthors@noaa.gov.  Thank you for your patience during this time of transition.
AAWU Home :: Display TAF Add Bookmark
SPECI PANW 271109Z AUTO 15006KT 10SM -RA FEW018 BKN028 OVC034 03/02
     A2997 RMK AO2 RAB01 P0000=

METAR PANW 271156Z AUTO 14004KT 10SM BKN026 OVC032 03/02 A2997 RMK AO2
     RAB01E46 SLP166 P0000 60003 70016 T00330022 10044 20028
     55000=

SPECI PANW 271219Z AUTO 10003KT 10SM -RA OVC030 03/02 A2996 RMK AO2
     RAB1158 P0000=

METAR PANW 271256Z AUTO 12004KT 10SM BKN034 OVC047 03/02 A2996 RMK AO2
     RAB1158E45UPB24E28 SLP164 P0000 T00280022=

PANW 271356Z AUTO 09004KT 10SM UP OVC045 02/02 A2996 RMK AO2
     UPB05E30B54RAB41E54 SLP164 P0000 T00220017 FZRANO=

METAR PANW 271456Z AUTO 07003KT 10SM UP SCT041 OVC055 02/02 A2996
 RMK AO2 UPE02B30RAB12E30 SLP164 P0000 60000 T00220017 56002
 FZRANO=

METAR PANW 271556Z AUTO 08006KT 10SM OVC055 03/02 A2996 RMK AO2
     UPE08RAB08E09 SLP164 P0000 T00280022=

SPECI PANW 271637Z AUTO 09006KT 10SM FEW004 SCT043 OVC065 04/03 A2996
     RMK AO2=

METAR PANW 271656Z AUTO 08007KT 10SM BKN006 OVC065 04/03 A2996 RMK AO2
     SLP162 T00390028=

SPECI PANW 271713Z AUTO 09006KT 10SM SCT006 BKN055 04/03 A2996 RMK
     AO2=


NOAA's National Weather Service
Alaska Aviation Weather Unit
6930 Sand Lake Road
Anchorage, AK 99502-1845
Disclaimer
Credits
Glossary
Privacy Policy
About Us
Career Opportunities
Contact AAWU Internet Services Site last modified: April, 17th 2012